createdAt,value
2022-11-21T00:00:41.856Z,6.82
2022-11-21T00:03:08.744Z,7.22
2022-11-21T00:05:35.660Z,6.65
2022-11-21T00:08:02.633Z,6.95
2022-11-21T00:10:29.533Z,6.47
2022-11-21T00:12:56.423Z,7.22
2022-11-21T00:15:23.333Z,6.63
2022-11-21T00:17:50.226Z,6.60
2022-11-21T00:20:17.140Z,6.78
2022-11-21T00:22:44.037Z,7.18
2022-11-21T00:25:10.921Z,7.00
2022-11-21T00:27:39.840Z,7.18
2022-11-21T00:30:06.787Z,7.38
2022-11-21T00:32:33.662Z,6.70
2022-11-21T00:35:00.580Z,6.93
2022-11-21T00:37:27.487Z,6.97
2022-11-21T00:39:54.378Z,6.85
2022-11-21T00:42:21.283Z,6.35
2022-11-21T00:44:48.355Z,6.63
2022-11-21T00:47:15.231Z,6.75
2022-11-21T00:49:42.140Z,7.28
2022-11-21T00:52:09.055Z,6.97
2022-11-21T00:54:35.969Z,6.60
2022-11-21T00:57:02.847Z,7.53
2022-11-21T00:59:29.751Z,7.57
2022-11-21T01:01:56.640Z,7.15
2022-11-21T01:04:23.546Z,6.63
2022-11-21T01:06:50.439Z,7.45
2022-11-21T01:09:17.330Z,7.63
2022-11-21T01:11:44.229Z,7.28
2022-11-21T01:14:11.137Z,7.53
2022-11-21T01:16:38.021Z,7.28
2022-11-21T01:19:04.932Z,6.63
2022-11-21T01:21:31.826Z,7.30
2022-11-21T01:23:58.716Z,6.35
2022-11-21T01:26:25.602Z,6.78
2022-11-21T01:28:52.511Z,7.10
2022-11-21T01:31:19.413Z,6.78
2022-11-21T01:33:46.338Z,6.40
2022-11-21T01:36:13.258Z,7.05
2022-11-21T01:38:40.162Z,6.90
2022-11-21T01:41:07.045Z,6.88
2022-11-21T01:43:33.927Z,7.10
2022-11-21T01:46:01.024Z,6.65
2022-11-21T01:48:27.910Z,7.18
2022-11-21T01:50:54.794Z,6.93
2022-11-21T01:53:21.694Z,7.28
2022-11-21T01:55:48.630Z,6.45
2022-11-21T01:58:15.526Z,7.30
2022-11-21T02:00:42.473Z,6.65
2022-11-21T02:03:09.545Z,6.55
2022-11-21T02:05:36.448Z,6.88
2022-11-21T02:08:03.351Z,6.68
2022-11-21T02:10:30.256Z,6.43
2022-11-21T02:12:57.209Z,6.60
2022-11-21T02:15:24.126Z,7.10
2022-11-21T02:17:51.028Z,6.90
2022-11-21T02:20:17.949Z,5.75
2022-11-21T02:22:44.854Z,6.97
2022-11-21T02:25:11.782Z,6.28
2022-11-21T02:27:38.671Z,6.22
2022-11-21T02:30:05.572Z,6.40
2022-11-21T02:32:32.486Z,6.30
2022-11-21T02:34:59.415Z,6.25
2022-11-21T02:37:26.295Z,6.05
2022-11-21T02:39:53.221Z,6.38
2022-11-21T02:42:20.105Z,6.32
2022-11-21T02:44:47.013Z,5.80
2022-11-21T02:47:16.216Z,6.40
2022-11-21T02:49:43.182Z,5.75
2022-11-21T02:52:10.071Z,5.82
2022-11-21T02:54:36.971Z,6.05
2022-11-21T02:57:03.883Z,6.45
2022-11-21T02:59:30.795Z,5.80
2022-11-21T03:01:57.682Z,5.95
2022-11-21T03:04:24.694Z,5.80
2022-11-21T03:06:51.653Z,5.65
2022-11-21T03:09:18.553Z,5.70
2022-11-21T03:11:45.453Z,6.13
2022-11-21T03:14:12.349Z,5.82
2022-11-21T03:16:39.242Z,5.63
2022-11-21T03:19:06.139Z,6.13
2022-11-21T03:21:33.028Z,6.72
2022-11-21T03:23:59.903Z,6.68
2022-11-21T03:26:26.783Z,5.95
2022-11-21T03:28:53.708Z,5.82
2022-11-21T03:31:20.585Z,6.28
2022-11-21T03:33:47.481Z,6.15
2022-11-21T03:36:14.421Z,6.32
2022-11-21T03:38:41.329Z,6.10
2022-11-21T03:41:08.263Z,5.93
2022-11-21T03:43:35.146Z,5.95
2022-11-21T03:46:02.618Z,6.18
2022-11-21T03:48:32.594Z,6.30
2022-11-21T03:50:59.487Z,6.35
2022-11-21T03:53:26.387Z,5.78
2022-11-21T03:55:53.312Z,6.07
2022-11-21T03:58:20.197Z,6.85
2022-11-21T04:00:47.138Z,6.50
2022-11-21T04:03:14.044Z,6.07
2022-11-21T04:05:40.942Z,6.68
2022-11-21T04:08:07.840Z,6.35
2022-11-21T04:10:34.758Z,6.63
2022-11-21T04:13:01.658Z,6.40
2022-11-21T04:15:28.597Z,6.70
2022-11-21T04:17:55.492Z,6.20
2022-11-21T04:20:22.506Z,6.20
2022-11-21T04:22:49.416Z,6.00
2022-11-21T04:25:16.361Z,6.60
2022-11-21T04:27:43.252Z,6.10
2022-11-21T04:30:10.168Z,6.18
2022-11-21T04:32:37.039Z,6.43
2022-11-21T04:35:03.953Z,6.20
2022-11-21T04:37:30.838Z,5.80
2022-11-21T04:39:57.752Z,6.22
2022-11-21T04:42:24.641Z,6.70
2022-11-21T04:44:51.559Z,6.25
2022-11-21T04:47:18.445Z,6.78
2022-11-21T04:49:45.341Z,6.75
2022-11-21T04:52:12.245Z,6.82
2022-11-21T04:54:39.156Z,6.60
2022-11-21T04:57:06.047Z,6.32
2022-11-21T04:59:32.943Z,7.10
2022-11-21T05:02:00.197Z,6.47
2022-11-21T05:04:27.320Z,5.88
2022-11-21T05:06:54.491Z,6.47
2022-11-21T05:09:21.380Z,6.43
2022-11-21T05:11:48.266Z,6.72
2022-11-21T05:14:15.156Z,6.28
2022-11-21T05:16:42.029Z,6.05
2022-11-21T05:19:09.057Z,6.13
2022-11-21T05:21:35.962Z,6.40
2022-11-21T05:24:02.875Z,6.80
2022-11-21T05:26:29.803Z,6.72
2022-11-21T05:28:56.709Z,6.15
2022-11-21T05:31:23.631Z,5.85
2022-11-21T05:33:50.548Z,6.35
2022-11-21T05:36:17.593Z,6.13
2022-11-21T05:38:44.519Z,5.45
2022-11-21T05:41:11.453Z,5.90
2022-11-21T05:43:38.772Z,4.90
2022-11-21T05:46:05.807Z,5.43
2022-11-21T05:48:32.805Z,5.72
2022-11-21T05:50:59.747Z,5.47
2022-11-21T05:53:26.696Z,6.20
2022-11-21T05:55:53.611Z,6.82
2022-11-21T05:58:20.504Z,6.30
2022-11-21T06:00:47.399Z,6.88
2022-11-21T06:03:14.361Z,6.85
2022-11-21T06:05:42.642Z,6.28
2022-11-21T06:08:09.524Z,6.90
2022-11-21T06:10:36.429Z,6.20
2022-11-21T06:13:03.315Z,6.30
2022-11-21T06:15:30.569Z,6.85
2022-11-21T06:17:57.474Z,6.40
2022-11-21T06:20:24.369Z,7.25
2022-11-21T06:22:51.283Z,7.15
2022-11-21T06:25:18.193Z,6.88
2022-11-21T06:27:45.066Z,7.13
2022-11-21T06:30:11.969Z,6.63
2022-11-21T06:32:38.942Z,6.60
2022-11-21T06:35:05.920Z,7.07
2022-11-21T06:37:32.829Z,7.03
2022-11-21T06:39:59.767Z,6.65
2022-11-21T06:42:26.665Z,6.57
2022-11-21T06:44:53.548Z,6.90
2022-11-21T06:47:20.448Z,6.72
2022-11-21T06:49:47.329Z,7.05
2022-11-21T06:52:14.217Z,6.72
2022-11-21T06:54:41.105Z,6.78
2022-11-21T06:57:08.034Z,7.38
2022-11-21T06:59:34.946Z,6.30
2022-11-21T07:02:01.875Z,6.85
2022-11-21T07:04:28.952Z,6.43
2022-11-21T07:06:56.062Z,6.55
2022-11-21T07:09:33.252Z,6.47
2022-11-21T07:12:00.846Z,6.70
2022-11-21T07:14:29.109Z,6.85
2022-11-21T07:16:56.022Z,6.75
2022-11-21T07:19:30.841Z,7.00
2022-11-21T07:22:02.150Z,7.10
2022-11-21T07:26:56.145Z,7.10
2022-11-21T07:29:23.215Z,6.75
2022-11-21T07:31:50.159Z,6.68
2022-11-21T07:34:17.079Z,7.25
2022-11-21T07:36:45.917Z,7.05
2022-11-21T07:39:12.846Z,6.70
2022-11-21T07:41:39.778Z,6.70
2022-11-21T07:44:06.684Z,6.82
2022-11-21T07:46:33.631Z,6.55
2022-11-21T07:49:03.311Z,6.95
2022-11-21T07:51:30.719Z,6.35
2022-11-21T07:53:57.643Z,7.03
2022-11-21T07:59:21.595Z,7.97
2022-11-21T08:01:48.610Z,7.45
2022-11-21T08:06:56.366Z,6.93
2022-11-21T08:09:23.268Z,7.00
2022-11-21T08:11:50.198Z,6.80
2022-11-21T08:14:18.259Z,6.90
2022-11-21T08:16:45.171Z,6.93
2022-11-21T08:19:12.109Z,7.57
2022-11-21T08:21:39.097Z,7.22
2022-11-21T08:24:05.997Z,7.50
2022-11-21T08:29:24.081Z,7.38
2022-11-21T08:31:51.185Z,7.75
2022-11-21T08:34:31.507Z,7.38
2022-11-21T08:36:58.450Z,7.95
2022-11-21T08:39:25.512Z,7.68
2022-11-21T08:48:16.818Z,7.72
2022-11-21T08:50:20.892Z,7.10
2022-11-21T08:52:47.838Z,7.70
2022-11-21T08:55:19.599Z,8.25
2022-11-21T08:57:50.993Z,7.32
2022-11-21T09:00:22.084Z,7.80
2022-11-21T09:02:49.037Z,7.60
2022-11-21T09:05:15.971Z,7.30
2022-11-21T09:08:24.832Z,7.65
2022-11-21T09:13:40.085Z,8.27
2022-11-21T09:16:07.029Z,8.25
2022-11-21T09:21:25.440Z,8.73
2022-11-21T09:24:03.000Z,8.32
2022-11-21T09:26:29.939Z,8.70
2022-11-21T09:28:56.919Z,8.65
2022-11-21T09:31:23.896Z,9.02
2022-11-21T09:33:54.839Z,9.32
2022-11-21T09:36:22.119Z,9.52
2022-11-21T09:38:49.030Z,10.73
2022-11-21T09:41:15.982Z,9.90
2022-11-21T09:43:42.893Z,10.43
2022-11-21T09:46:09.801Z,11.27
2022-11-21T09:48:36.738Z,11.57
2022-11-21T09:51:03.651Z,12.02
2022-11-21T09:53:30.586Z,11.65
2022-11-21T09:55:57.520Z,10.75
2022-11-21T09:58:24.425Z,11.35
2022-11-21T10:00:51.382Z,11.35
2022-11-21T10:03:22.282Z,11.23
2022-11-21T10:08:16.495Z,10.75
2022-11-21T10:10:43.408Z,10.55
2022-11-21T10:13:10.320Z,9.90
2022-11-21T10:15:37.239Z,10.15
2022-11-21T10:18:04.213Z,10.63
2022-11-21T10:20:31.140Z,10.88
2022-11-21T10:22:58.073Z,10.98
2022-11-21T10:25:27.238Z,9.93
2022-11-21T10:27:54.566Z,10.90
2022-11-21T10:30:21.479Z,11.05
2022-11-21T10:32:48.473Z,10.40
2022-11-21T10:35:15.394Z,10.98
2022-11-21T10:37:42.343Z,11.07
2022-11-21T10:40:09.256Z,11.98
2022-11-21T10:42:36.177Z,12.05
2022-11-21T10:45:03.120Z,12.13
2022-11-21T10:47:30.070Z,12.38
2022-11-21T10:49:57.000Z,11.60
2022-11-21T10:52:23.911Z,11.68
2022-11-21T10:54:50.872Z,11.35
2022-11-21T10:57:17.785Z,11.70
2022-11-21T10:59:44.692Z,13.10
2022-11-21T11:02:11.631Z,12.07
2022-11-21T11:04:47.494Z,11.60
2022-11-21T11:07:18.916Z,11.57
2022-11-21T11:09:45.870Z,11.18
2022-11-21T11:12:12.847Z,11.52
2022-11-21T11:14:39.759Z,11.43
2022-11-21T11:17:06.691Z,11.93
2022-11-21T11:19:39.895Z,11.52
2022-11-21T11:22:07.402Z,11.02
2022-11-21T11:24:34.303Z,11.70
2022-11-21T11:27:01.209Z,11.20
2022-11-21T11:29:28.291Z,10.73
2022-11-21T11:31:57.945Z,9.90
2022-11-21T11:34:24.852Z,10.90
2022-11-21T11:36:51.806Z,11.27
2022-11-21T11:39:18.746Z,10.02
2022-11-21T11:41:47.129Z,10.18
2022-11-21T11:44:14.163Z,10.15
2022-11-21T11:46:41.104Z,10.45
2022-11-21T11:49:23.453Z,10.82
2022-11-21T11:51:50.465Z,11.55
2022-11-21T11:54:17.377Z,10.20
2022-11-21T11:56:44.319Z,10.32
2022-11-21T11:59:11.245Z,10.60
2022-11-21T12:01:38.200Z,11.10
2022-11-21T12:04:05.100Z,10.77
2022-11-21T12:07:10.739Z,10.60
2022-11-21T12:09:19.020Z,9.82
2022-11-21T12:11:46.957Z,9.95
2022-11-21T12:14:13.940Z,10.02
2022-11-21T12:16:40.923Z,9.27
2022-11-21T12:19:07.888Z,9.20
2022-11-21T12:21:34.813Z,9.23
2022-11-21T12:24:01.762Z,8.85
2022-11-21T12:26:28.687Z,9.57
2022-11-21T12:28:55.600Z,9.93
2022-11-21T12:31:22.532Z,9.23
2022-11-21T12:33:49.472Z,9.60
2022-11-21T12:36:18.789Z,9.10
2022-11-21T12:38:47.028Z,9.30
2022-11-21T12:41:14.128Z,8.88
2022-11-21T12:43:41.044Z,8.43
2022-11-21T12:46:08.002Z,9.00
2022-11-21T12:48:35.000Z,8.68
2022-11-21T12:51:02.486Z,8.07
2022-11-21T12:53:29.527Z,8.70
2022-11-21T12:55:56.694Z,8.13
2022-11-21T12:58:23.625Z,8.77
2022-11-21T13:00:50.596Z,8.98
2022-11-21T13:03:17.581Z,10.15
2022-11-21T13:05:44.519Z,9.95
2022-11-21T13:08:11.512Z,9.90
2022-11-21T13:10:42.281Z,10.23
2022-11-21T13:13:09.242Z,10.27
2022-11-21T13:15:38.586Z,10.30
2022-11-21T13:20:57.252Z,10.88
2022-11-21T13:23:24.221Z,9.90
2022-11-21T13:25:51.141Z,10.43
2022-11-21T13:28:18.062Z,10.75
2022-11-21T13:30:44.964Z,10.63
2022-11-21T13:33:11.898Z,10.82
2022-11-21T13:35:38.814Z,11.77
2022-11-21T13:38:05.754Z,10.68
2022-11-21T13:40:34.574Z,10.75
2022-11-21T13:43:25.493Z,11.38
2022-11-21T13:45:48.510Z,10.20
2022-11-21T13:48:15.580Z,10.25
2022-11-21T13:50:42.489Z,9.60
2022-11-21T13:53:09.411Z,10.02
2022-11-21T13:55:37.454Z,10.40
2022-11-21T13:58:04.396Z,10.15
2022-11-21T14:00:31.308Z,9.38
2022-11-21T14:02:58.283Z,10.05
2022-11-21T14:05:25.248Z,9.07
2022-11-21T14:07:52.283Z,9.35
2022-11-21T14:10:19.278Z,9.43
2022-11-21T14:12:47.161Z,9.30
2022-11-21T14:15:14.107Z,9.48
2022-11-21T14:17:41.245Z,8.65
2022-11-21T14:20:08.158Z,9.63
2022-11-21T14:22:37.802Z,8.93
2022-11-21T14:25:06.785Z,9.50
2022-11-21T14:27:33.779Z,9.27
2022-11-21T14:32:49.853Z,9.38
2022-11-21T14:35:20.761Z,9.10
2022-11-21T14:37:50.536Z,9.80
2022-11-21T14:40:17.506Z,9.75
2022-11-21T14:42:44.443Z,9.60
2022-11-21T14:45:11.536Z,9.00
2022-11-21T14:47:38.611Z,10.25
2022-11-21T14:50:07.436Z,9.50
2022-11-21T14:52:34.667Z,9.55
2022-11-21T14:57:48.453Z,10.15
2022-11-21T15:00:36.034Z,9.65
2022-11-21T15:03:02.557Z,10.10
2022-11-21T15:05:55.019Z,10.32
2022-11-21T15:08:50.727Z,9.98
2022-11-21T15:11:05.653Z,10.50
2022-11-21T15:13:51.583Z,9.98
2022-11-21T15:16:19.762Z,10.18
2022-11-21T15:18:47.295Z,10.02
2022-11-21T15:21:14.287Z,10.50
2022-11-21T15:23:41.233Z,11.00
2022-11-21T15:26:08.176Z,9.43
2022-11-21T15:28:35.132Z,9.93
2022-11-21T15:31:02.871Z,10.20
2022-11-21T15:33:31.088Z,9.65
2022-11-21T15:35:58.047Z,10.32
2022-11-21T15:38:24.990Z,10.07
2022-11-21T15:40:53.139Z,9.77
2022-11-21T15:43:21.177Z,10.45
2022-11-21T15:45:48.074Z,10.68
2022-11-21T15:48:15.025Z,10.00
2022-11-21T15:50:41.933Z,10.10
2022-11-21T15:53:08.851Z,10.40
2022-11-21T15:55:35.752Z,10.15
2022-11-21T15:58:02.716Z,11.60
2022-11-21T16:00:29.637Z,12.27
2022-11-21T16:02:56.531Z,11.52
2022-11-21T16:05:23.440Z,10.30
2022-11-21T16:07:50.422Z,10.48
2022-11-21T16:10:24.407Z,9.60
2022-11-21T16:12:54.258Z,10.38
2022-11-21T16:15:21.161Z,9.40
2022-11-21T16:17:50.402Z,9.65
2022-11-21T16:20:17.327Z,9.63
2022-11-21T16:22:47.447Z,9.95
2022-11-21T16:25:14.960Z,10.18
2022-11-21T16:27:41.918Z,10.30
2022-11-21T16:30:08.844Z,9.65
2022-11-21T16:32:35.752Z,9.52
2022-11-21T16:35:02.710Z,9.05
2022-11-21T16:37:29.598Z,9.48
2022-11-21T16:39:56.531Z,10.45
2022-11-21T16:42:23.489Z,10.50
2022-11-21T16:44:50.413Z,10.10
2022-11-21T16:47:17.384Z,10.50
2022-11-21T16:49:44.319Z,10.40
2022-11-21T16:52:11.339Z,11.15
2022-11-21T16:54:38.313Z,13.18
2022-11-21T16:57:05.208Z,13.05
2022-11-21T16:59:32.119Z,13.77
2022-11-21T17:01:59.023Z,14.05
2022-11-21T17:04:26.683Z,13.90
2022-11-21T17:06:53.575Z,14.20
2022-11-21T17:09:20.475Z,12.73
2022-11-21T17:11:47.347Z,13.85
2022-11-21T17:14:14.263Z,13.65
2022-11-21T17:16:41.173Z,12.77
2022-11-21T17:19:08.092Z,10.38
2022-11-21T17:21:35.018Z,10.82
2022-11-21T17:24:01.949Z,9.82
2022-11-21T17:26:28.834Z,10.30
2022-11-21T17:28:55.935Z,10.20
2022-11-21T17:31:22.823Z,9.32
2022-11-21T17:33:53.842Z,9.65
2022-11-21T17:36:20.741Z,10.90
2022-11-21T17:38:47.667Z,11.00
2022-11-21T17:41:14.591Z,11.27
2022-11-21T17:43:43.092Z,10.45
2022-11-21T17:46:10.472Z,9.43
2022-11-21T17:48:37.479Z,9.88
2022-11-21T17:51:04.464Z,11.13
2022-11-21T17:53:31.608Z,11.20
2022-11-21T17:55:58.543Z,11.10
2022-11-21T17:58:25.451Z,10.55
2022-11-21T18:00:52.612Z,9.70
2022-11-21T18:03:19.597Z,11.30
2022-11-21T18:05:51.480Z,10.82
2022-11-21T18:08:18.597Z,9.55
2022-11-21T18:10:45.545Z,9.93
2022-11-21T18:13:12.524Z,10.35
2022-11-21T18:15:39.392Z,10.00
2022-11-21T18:18:06.271Z,9.32
2022-11-21T18:20:33.209Z,9.80
2022-11-21T18:23:00.100Z,9.68
2022-11-21T18:25:27.005Z,9.55
2022-11-21T18:27:54.795Z,10.40
2022-11-21T18:30:21.867Z,10.27
2022-11-21T18:32:48.807Z,9.68
2022-11-21T18:37:58.570Z,9.90
2022-11-21T18:40:25.475Z,9.57
2022-11-21T18:42:52.409Z,10.00
2022-11-21T18:45:19.336Z,9.23
2022-11-21T18:47:47.840Z,9.60
2022-11-21T18:50:15.372Z,9.30
2022-11-21T18:52:46.350Z,9.80
2022-11-21T18:55:13.640Z,10.32
2022-11-21T18:57:40.554Z,10.48
2022-11-21T19:00:07.450Z,10.70
2022-11-21T19:02:34.324Z,11.00
2022-11-21T19:05:01.260Z,10.55
2022-11-21T19:07:31.135Z,11.98
2022-11-21T19:10:14.739Z,11.77
2022-11-21T19:12:50.105Z,10.88
2022-11-21T19:15:17.036Z,10.85
2022-11-21T19:17:44.057Z,11.63
2022-11-21T19:20:10.958Z,11.88
2022-11-21T19:22:37.943Z,10.82
2022-11-21T19:25:04.875Z,11.00
2022-11-21T19:27:31.892Z,11.15
2022-11-21T19:29:58.811Z,10.40
2022-11-21T19:32:25.751Z,11.73
2022-11-21T19:34:52.687Z,12.57
2022-11-21T19:37:19.643Z,13.10
2022-11-21T19:39:49.100Z,11.35
2022-11-21T19:42:15.992Z,12.13
2022-11-21T19:44:42.914Z,11.95
2022-11-21T19:47:09.854Z,11.85
2022-11-21T19:49:36.847Z,12.55
2022-11-21T19:52:03.734Z,11.90
2022-11-21T19:54:31.194Z,11.35
2022-11-21T19:56:58.392Z,11.68
2022-11-21T19:59:25.293Z,11.48
2022-11-21T20:01:53.032Z,11.38
2022-11-21T20:04:20.205Z,11.18
2022-11-21T20:06:47.114Z,11.52
2022-11-21T20:09:14.086Z,11.93
2022-11-21T20:11:40.982Z,12.65
2022-11-21T20:14:07.871Z,11.98
2022-11-21T20:22:17.337Z,12.18
2022-11-21T20:27:35.377Z,11.68
2022-11-21T20:30:02.324Z,12.38
2022-11-21T20:32:48.126Z,12.20
2022-11-21T21:21:15.617Z,12.25
2022-11-21T21:23:44.737Z,13.05
2022-11-21T21:26:11.753Z,13.73
2022-11-21T21:51:15.695Z,12.52
2022-11-21T21:53:48.692Z,11.80
2022-11-21T21:59:09.001Z,10.82
2022-11-21T22:04:33.718Z,12.15
2022-11-21T22:07:33.875Z,10.98
2022-11-21T22:10:13.498Z,11.90
2022-11-21T22:15:38.518Z,10.88
2022-11-21T22:37:50.779Z,10.98
2022-11-21T22:42:44.683Z,11.52
2022-11-21T22:45:11.583Z,11.18
2022-11-21T22:47:39.827Z,11.70
2022-11-21T22:50:09.299Z,11.75
2022-11-21T22:52:39.525Z,11.45
2022-11-21T22:55:09.699Z,12.18
2022-11-21T22:57:36.755Z,12.00
2022-11-21T23:00:03.786Z,11.07
2022-11-21T23:02:30.701Z,11.13
2022-11-21T23:04:57.609Z,11.88
2022-11-21T23:07:24.628Z,12.38
2022-11-21T23:09:51.547Z,11.65
2022-11-21T23:12:18.441Z,11.63
2022-11-21T23:14:45.402Z,12.45
2022-11-21T23:17:12.438Z,12.32
2022-11-21T23:19:39.363Z,12.90
2022-11-21T23:22:06.275Z,12.63
2022-11-21T23:24:33.210Z,12.88
2022-11-21T23:27:00.104Z,12.02
2022-11-21T23:29:27.372Z,12.35
2022-11-21T23:31:54.690Z,11.90
2022-11-21T23:34:21.603Z,12.13
2022-11-21T23:36:48.514Z,12.50
2022-11-21T23:39:15.475Z,12.00
2022-11-21T23:41:42.396Z,12.88
2022-11-21T23:44:09.410Z,12.82
2022-11-21T23:46:36.340Z,13.90
2022-11-21T23:49:03.277Z,12.43
2022-11-21T23:51:30.187Z,12.45
2022-11-21T23:53:57.120Z,12.20
2022-11-21T23:56:24.028Z,12.75
2022-11-21T23:58:50.949Z,11.95
